Allegan, Michigan
Current Conditions -  °F | °C
As of 9:53 PM on Thursday 27 Nov 2014 (Local Time) from KBIV Reporting Station
Overcast Overcast  
Wind Chill: 16°   Ceiling: 3500
Heat Index: 22°   Visibility: 9mi
Dew Point: 16°   Wind: 5mph
Humidity: 78%   Direction: 40°NE
Pressure: 30.36"   Gusts: NA
Location:  42.53°N, 85.86°W
Report Text: KBIV 280253Z AUTO 04004KT 9SM OVC035 M06/M09 A3036 RMK AO2 SNB15E50 SLP290 P0000 60000 T10561089 50004
Loading
Personal Weather Stations






























Interactive Weather Map New forecast layout! Learn more

10-Day Weather Forecast

Advertisements
Track Severe Weather on mobile